createdAt,value
2022-11-25T00:01:40.062Z,51.73
2022-11-25T00:04:07.564Z,51.49
2022-11-25T00:06:35.584Z,50.74
2022-11-25T00:09:04.944Z,51.00
2022-11-25T00:11:34.536Z,50.94
2022-11-25T00:14:02.143Z,51.21
2022-11-25T00:16:29.443Z,51.08
2022-11-25T00:18:57.202Z,51.04
2022-11-25T00:21:25.898Z,51.46
2022-11-25T00:23:53.461Z,51.59
2022-11-25T00:26:21.092Z,51.76
2022-11-25T00:28:48.493Z,52.70
2022-11-25T00:31:19.684Z,52.97
2022-11-25T00:33:47.251Z,52.64
2022-11-25T00:36:33.729Z,52.63
2022-11-25T00:39:02.976Z,52.84
2022-11-25T00:41:49.020Z,53.18
2022-11-25T00:44:41.449Z,52.70
2022-11-25T00:47:09.774Z,53.00
2022-11-25T00:49:37.874Z,54.37
2022-11-25T00:52:05.378Z,54.95
2022-11-25T00:54:33.001Z,53.87
2022-11-25T00:57:00.639Z,54.43
2022-11-25T00:59:29.792Z,54.08
2022-11-25T01:01:59.774Z,53.77
2022-11-25T01:04:27.311Z,54.37
2022-11-25T01:06:56.786Z,55.27
2022-11-25T01:09:24.002Z,54.71
2022-11-25T01:11:51.819Z,54.95
2022-11-25T01:14:19.189Z,54.40
2022-11-25T01:16:47.699Z,56.62
2022-11-25T01:19:15.514Z,54.95
2022-11-25T01:21:42.916Z,55.60
2022-11-25T01:24:12.269Z,54.50
2022-11-25T01:26:39.790Z,54.99
2022-11-25T01:29:07.678Z,54.63
2022-11-25T01:31:35.917Z,53.54
2022-11-25T01:34:07.675Z,53.33
2022-11-25T01:36:35.809Z,53.46
2022-11-25T01:39:03.804Z,53.87
2022-11-25T01:41:31.703Z,54.47
2022-11-25T01:44:05.327Z,54.17
2022-11-25T01:46:52.093Z,53.59
2022-11-25T01:49:27.421Z,53.54
2022-11-25T01:52:04.048Z,53.04
2022-11-25T01:54:32.727Z,53.85
2022-11-25T01:57:01.839Z,53.91
2022-11-25T01:59:29.098Z,55.22
2022-11-25T02:01:56.697Z,55.22
2022-11-25T02:04:24.358Z,53.88
2022-11-25T02:06:53.099Z,53.15
2022-11-25T02:09:21.569Z,53.90
2022-11-25T02:11:49.081Z,53.83
2022-11-25T02:14:17.127Z,54.08
2022-11-25T02:16:44.388Z,53.59
2022-11-25T02:19:16.230Z,53.15
2022-11-25T02:21:45.459Z,53.24
2022-11-25T02:24:16.143Z,54.23
2022-11-25T02:26:44.142Z,52.85
2022-11-25T02:29:11.321Z,54.29
2022-11-25T02:31:38.634Z,53.32
2022-11-25T02:34:06.284Z,53.72
2022-11-25T02:36:34.411Z,53.41
2022-11-25T02:39:01.833Z,52.43
2022-11-25T02:41:32.817Z,52.38
2022-11-25T02:44:00.333Z,52.54
2022-11-25T02:46:28.613Z,52.91
2022-11-25T02:49:11.955Z,53.13
2022-11-25T02:51:41.747Z,52.92
2022-11-25T02:54:09.854Z,54.82
2022-11-25T02:56:37.218Z,55.20
2022-11-25T02:59:04.627Z,54.94
2022-11-25T03:01:32.446Z,56.17
2022-11-25T03:03:59.913Z,55.97
2022-11-25T03:06:28.060Z,58.62
2022-11-25T03:08:55.702Z,57.04
2022-11-25T03:11:43.003Z,58.50
2022-11-25T03:14:10.502Z,57.62
2022-11-25T03:16:37.710Z,60.16
2022-11-25T03:19:04.969Z,58.46
2022-11-25T03:21:32.431Z,59.01
2022-11-25T03:23:59.719Z,59.26
2022-11-25T03:26:26.922Z,58.81
2022-11-25T03:28:54.743Z,59.53
2022-11-25T03:31:22.052Z,59.54
2022-11-25T03:33:49.279Z,59.04
2022-11-25T03:36:16.709Z,58.50
2022-11-25T03:38:43.953Z,58.58
2022-11-25T03:41:11.197Z,58.86
2022-11-25T03:43:38.754Z,58.89
2022-11-25T03:46:06.107Z,58.84
2022-11-25T03:48:33.352Z,57.97
2022-11-25T03:51:00.900Z,59.11
2022-11-25T03:53:28.302Z,57.64
2022-11-25T03:55:55.576Z,57.24
2022-11-25T03:58:23.236Z,57.52
2022-11-25T04:00:50.913Z,56.15
2022-11-25T04:03:18.488Z,56.70
2022-11-25T04:05:45.741Z,55.60
2022-11-25T04:08:13.191Z,54.71
2022-11-25T04:10:40.687Z,54.29
2022-11-25T04:13:08.802Z,55.39
2022-11-25T04:15:36.149Z,54.68
2022-11-25T04:18:03.677Z,54.06
2022-11-25T04:20:31.643Z,54.03
2022-11-25T04:22:59.081Z,54.03
2022-11-25T04:25:27.409Z,55.93
2022-11-25T04:27:55.098Z,56.62
2022-11-25T04:30:23.193Z,55.37
2022-11-25T04:32:50.659Z,54.35
2022-11-25T04:35:17.849Z,53.49
2022-11-25T04:37:45.337Z,53.42
2022-11-25T04:40:13.418Z,53.89
2022-11-25T04:42:45.300Z,54.73
2022-11-25T04:45:23.926Z,56.28
2022-11-25T04:47:52.179Z,54.31
2022-11-25T04:50:21.100Z,54.35
2022-11-25T04:52:50.913Z,54.21
2022-11-25T04:55:18.344Z,53.81
2022-11-25T04:57:45.916Z,52.78
2022-11-25T05:00:13.623Z,52.62
2022-11-25T05:02:41.873Z,52.94
2022-11-25T05:05:09.567Z,53.05
2022-11-25T05:07:38.772Z,52.37
2022-11-25T05:10:06.775Z,52.91
2022-11-25T05:12:34.432Z,52.68
2022-11-25T05:15:02.454Z,52.80
2022-11-25T05:17:30.507Z,54.04
2022-11-25T05:19:58.229Z,53.92
2022-11-25T05:22:26.470Z,54.09
2022-11-25T05:24:53.985Z,54.20
2022-11-25T05:27:22.125Z,54.08
2022-11-25T05:29:55.524Z,53.49
2022-11-25T05:32:24.042Z,53.13
2022-11-25T05:34:51.604Z,53.13
2022-11-25T05:37:24.166Z,54.93
2022-11-25T05:39:53.216Z,53.94
2022-11-25T05:42:21.362Z,54.36
2022-11-25T05:44:48.634Z,53.77
2022-11-25T05:47:16.208Z,53.52
2022-11-25T05:49:43.465Z,53.14
2022-11-25T05:52:10.781Z,53.77
2022-11-25T05:54:38.998Z,53.87
2022-11-25T05:57:06.664Z,53.72
2022-11-25T05:59:34.014Z,53.82
2022-11-25T06:02:02.376Z,53.29
2022-11-25T06:04:30.072Z,53.67
2022-11-25T06:06:57.323Z,53.70
2022-11-25T06:09:24.500Z,53.73
2022-11-25T06:11:52.051Z,53.69
2022-11-25T06:14:19.889Z,54.13
2022-11-25T06:16:47.573Z,54.41
2022-11-25T06:19:16.049Z,53.59
2022-11-25T06:21:43.350Z,53.54
2022-11-25T06:24:10.610Z,52.95
2022-11-25T06:26:38.914Z,53.00
2022-11-25T06:29:06.116Z,52.37
2022-11-25T06:31:33.351Z,52.74
2022-11-25T06:34:02.099Z,52.61
2022-11-25T06:36:29.384Z,52.35
2022-11-25T06:38:56.561Z,52.00
2022-11-25T06:41:24.021Z,52.79
2022-11-25T06:43:51.279Z,50.84
2022-11-25T06:46:24.557Z,49.65
2022-11-25T06:48:53.080Z,48.04
2022-11-25T06:51:20.329Z,47.65
2022-11-25T06:53:47.523Z,46.08
2022-11-25T06:56:16.332Z,45.57
2022-11-25T06:58:43.724Z,44.92
2022-11-25T07:01:15.116Z,41.78
2022-11-25T07:03:43.330Z,40.76
2022-11-25T07:06:12.142Z,40.52
2022-11-25T07:08:39.345Z,40.44
2022-11-25T07:11:08.034Z,38.39
2022-11-25T07:13:35.229Z,38.61
2022-11-25T07:16:03.378Z,40.17
2022-11-25T07:18:34.680Z,41.09
2022-11-25T07:21:03.483Z,41.73
2022-11-25T07:23:31.158Z,41.74
2022-11-25T07:26:02.230Z,41.53
2022-11-25T07:28:29.508Z,40.84
2022-11-25T07:33:44.396Z,41.22
2022-11-25T07:36:12.480Z,41.16
2022-11-25T07:38:43.569Z,40.37
2022-11-25T07:41:23.690Z,40.36
2022-11-25T07:43:51.964Z,40.36
2022-11-25T07:46:26.703Z,39.80
2022-11-25T07:48:58.390Z,40.18
2022-11-25T07:51:31.863Z,40.27
2022-11-25T07:53:59.759Z,40.33
2022-11-25T07:56:27.682Z,39.48
2022-11-25T07:58:55.267Z,39.21
2022-11-25T08:01:22.451Z,40.28
2022-11-25T08:03:50.347Z,39.12
2022-11-25T08:06:20.578Z,38.81
2022-11-25T08:08:47.856Z,38.26
2022-11-25T08:11:16.593Z,38.25
2022-11-25T08:13:43.901Z,38.72
2022-11-25T08:16:13.022Z,39.59
2022-11-25T08:18:40.837Z,40.37
2022-11-25T08:21:09.917Z,39.25
2022-11-25T08:23:37.551Z,38.07
2022-11-25T08:26:05.741Z,39.67
2022-11-25T08:28:33.051Z,39.01
2022-11-25T08:31:03.984Z,38.56
2022-11-25T08:33:31.580Z,39.21
2022-11-25T08:35:58.823Z,39.18
2022-11-25T08:38:26.250Z,38.79
2022-11-25T08:40:53.919Z,38.32
2022-11-25T08:43:26.367Z,37.73
2022-11-25T08:45:56.613Z,37.14
2022-11-25T08:48:23.762Z,38.58
2022-11-25T08:50:52.681Z,39.53
2022-11-25T08:53:20.606Z,37.15
2022-11-25T08:55:48.118Z,37.20
2022-11-25T08:58:15.377Z,35.94
2022-11-25T09:00:43.198Z,36.75
2022-11-25T09:03:10.540Z,35.11
2022-11-25T09:05:41.353Z,33.87
2022-11-25T09:08:09.476Z,32.91
2022-11-25T09:10:37.276Z,34.95
2022-11-25T09:13:04.580Z,36.02
2022-11-25T09:15:32.634Z,35.62
2022-11-25T09:18:00.505Z,35.13
2022-11-25T09:20:27.764Z,35.45
2022-11-25T09:22:55.347Z,36.39
2022-11-25T09:25:22.686Z,36.86
2022-11-25T09:27:49.908Z,35.69
2022-11-25T09:30:17.479Z,36.12
2022-11-25T09:32:44.968Z,37.13
2022-11-25T09:35:12.389Z,37.00
2022-11-25T09:37:39.939Z,37.94
2022-11-25T09:40:07.742Z,37.51
2022-11-25T09:43:10.939Z,37.83
2022-11-25T09:46:29.584Z,36.99
2022-11-25T09:49:12.362Z,36.99
2022-11-25T09:51:42.134Z,35.03
2022-11-25T09:54:14.996Z,35.05
2022-11-25T09:56:43.142Z,34.71
2022-11-25T09:59:10.356Z,33.43
2022-11-25T10:01:43.309Z,32.86
2022-11-25T10:04:13.228Z,32.66
2022-11-25T10:06:46.650Z,33.57
2022-11-25T10:09:18.168Z,33.33
2022-11-25T10:11:50.952Z,31.77
2022-11-25T10:14:22.159Z,30.86
2022-11-25T10:16:56.742Z,29.60
2022-11-25T10:19:30.038Z,28.25
2022-11-25T10:21:57.290Z,26.95
2022-11-25T10:24:24.754Z,26.95
2022-11-25T10:26:58.331Z,26.22
2022-11-25T10:29:27.587Z,26.94
2022-11-25T10:32:10.807Z,27.36
2022-11-25T10:34:40.784Z,27.85
2022-11-25T10:37:12.425Z,30.09
2022-11-25T10:39:39.897Z,30.83
2022-11-25T10:42:10.071Z,30.86
2022-11-25T10:44:38.814Z,30.15
2022-11-25T10:47:25.377Z,30.16
2022-11-25T10:50:01.851Z,29.36
2022-11-25T10:52:30.665Z,30.36
2022-11-25T10:55:11.427Z,30.13
2022-11-25T10:57:39.037Z,29.94
2022-11-25T11:00:06.941Z,32.23
2022-11-25T11:02:34.238Z,32.04
2022-11-25T11:05:02.372Z,33.21
2022-11-25T11:07:33.864Z,34.07
2022-11-25T11:10:13.751Z,36.51
2022-11-25T11:12:59.609Z,37.10
2022-11-25T11:15:34.708Z,38.46
2022-11-25T11:18:15.106Z,40.19
2022-11-25T11:20:49.398Z,41.36
2022-11-25T11:23:16.794Z,43.04
2022-11-25T11:25:54.006Z,44.32
2022-11-25T11:28:25.576Z,43.72
2022-11-25T11:30:57.362Z,45.46
2022-11-25T11:33:27.680Z,44.85
2022-11-25T11:35:57.313Z,45.28
2022-11-25T11:38:24.563Z,44.63
2022-11-25T11:40:53.006Z,44.68
2022-11-25T11:43:34.478Z,43.63
2022-11-25T11:46:04.860Z,44.15
2022-11-25T11:48:32.315Z,45.34
2022-11-25T11:51:08.546Z,44.84
2022-11-25T11:53:41.914Z,45.41
2022-11-25T11:56:39.326Z,44.51
2022-11-25T11:59:04.913Z,44.66
2022-11-25T12:01:38.285Z,43.17
2022-11-25T12:04:16.656Z,43.71
2022-11-25T12:06:45.299Z,43.67
2022-11-25T12:09:13.878Z,43.39
2022-11-25T12:11:45.123Z,43.45
2022-11-25T12:14:22.358Z,43.04
2022-11-25T12:16:59.726Z,43.73
2022-11-25T12:19:30.633Z,44.58
2022-11-25T12:22:03.872Z,43.90
2022-11-25T12:24:33.452Z,43.55
2022-11-25T12:27:02.390Z,43.53
2022-11-25T12:29:45.923Z,43.69
2022-11-25T12:32:16.413Z,43.24
2022-11-25T12:35:03.909Z,42.82
2022-11-25T12:37:36.556Z,42.84
2022-11-25T12:40:13.365Z,42.85
2022-11-25T12:42:41.412Z,43.36
2022-11-25T12:45:12.001Z,43.68
2022-11-25T12:47:39.190Z,44.71
2022-11-25T12:50:06.861Z,44.81
2022-11-25T12:52:42.820Z,45.27
2022-11-25T12:55:25.277Z,45.52
2022-11-25T12:58:07.752Z,45.42
2022-11-25T13:00:54.073Z,45.36
2022-11-25T13:03:21.335Z,45.08
2022-11-25T13:05:51.826Z,46.49
2022-11-25T13:08:37.817Z,45.20
2022-11-25T13:11:05.610Z,44.35
2022-11-25T13:13:53.939Z,43.24
2022-11-25T13:16:22.202Z,43.56
2022-11-25T13:18:49.943Z,43.23
2022-11-25T13:21:18.101Z,42.70
2022-11-25T13:23:49.062Z,42.41
2022-11-25T13:26:46.487Z,43.66
2022-11-25T13:29:13.999Z,42.52
2022-11-25T13:32:00.086Z,42.43
2022-11-25T13:34:27.649Z,42.50
2022-11-25T13:36:55.690Z,42.39
2022-11-25T13:39:32.577Z,42.38
2022-11-25T13:42:18.921Z,42.63
2022-11-25T13:44:52.931Z,42.30
2022-11-25T13:47:25.145Z,42.28
2022-11-25T13:49:53.108Z,42.04
2022-11-25T13:52:20.544Z,42.54
2022-11-25T13:54:53.679Z,42.04
2022-11-25T13:57:25.532Z,42.32
2022-11-25T13:59:54.036Z,41.74
2022-11-25T14:02:35.761Z,41.64
2022-11-25T14:05:26.423Z,41.74
2022-11-25T14:08:08.031Z,41.86
2022-11-25T14:10:35.719Z,41.90
2022-11-25T14:13:02.944Z,41.63
2022-11-25T14:15:48.764Z,41.66
2022-11-25T14:18:16.201Z,41.67
2022-11-25T14:20:45.718Z,41.81
2022-11-25T14:23:22.854Z,41.89
2022-11-25T14:25:51.173Z,42.48
2022-11-25T14:28:21.647Z,41.98
2022-11-25T14:30:53.544Z,42.24
2022-11-25T14:33:24.978Z,41.97
2022-11-25T14:35:55.899Z,41.89
2022-11-25T14:38:24.804Z,41.94
2022-11-25T14:40:58.024Z,42.07
2022-11-25T14:43:25.658Z,42.00
2022-11-25T14:46:11.767Z,42.70
2022-11-25T14:48:39.388Z,42.39
2022-11-25T14:51:07.361Z,42.51
2022-11-25T14:53:41.762Z,42.57
2022-11-25T14:56:12.505Z,42.72
2022-11-25T14:58:40.752Z,42.88
2022-11-25T15:01:08.738Z,42.92
2022-11-25T15:03:36.307Z,43.10
2022-11-25T15:06:04.599Z,42.93
2022-11-25T15:08:39.307Z,42.90
2022-11-25T15:11:20.003Z,43.25
2022-11-25T15:13:48.043Z,43.95
2022-11-25T15:16:15.541Z,43.77
2022-11-25T15:18:49.712Z,43.95
2022-11-25T15:21:17.736Z,43.78
2022-11-25T15:23:44.970Z,44.07
2022-11-25T15:26:22.842Z,44.22
2022-11-25T15:29:13.453Z,44.27
2022-11-25T15:31:42.039Z,44.30
2022-11-25T15:34:13.246Z,44.10
2022-11-25T15:36:40.439Z,44.04
2022-11-25T15:39:15.114Z,44.21
2022-11-25T15:41:43.119Z,44.31
2022-11-25T15:44:17.353Z,44.95
2022-11-25T15:46:50.231Z,44.97
2022-11-25T15:49:17.570Z,44.52
2022-11-25T15:51:49.137Z,44.82
2022-11-25T15:54:20.871Z,44.79
2022-11-25T15:56:50.169Z,45.00
2022-11-25T15:59:36.457Z,44.38
2022-11-25T16:02:04.087Z,44.38
2022-11-25T16:04:31.620Z,44.80
2022-11-25T16:06:59.929Z,44.49
2022-11-25T16:09:31.264Z,44.51
2022-11-25T16:12:06.051Z,44.97
2022-11-25T16:14:34.767Z,44.44
2022-11-25T16:17:04.105Z,44.94
2022-11-25T16:19:37.969Z,44.50
2022-11-25T16:22:05.971Z,44.58
2022-11-25T16:24:37.861Z,43.87
2022-11-25T16:27:05.232Z,43.72
2022-11-25T16:29:35.136Z,43.35
2022-11-25T16:32:10.625Z,43.09
2022-11-25T16:34:38.464Z,43.56
2022-11-25T16:37:06.008Z,44.07
2022-11-25T16:39:33.229Z,43.91
2022-11-25T16:42:04.086Z,44.43
2022-11-25T16:44:32.012Z,44.72
2022-11-25T16:46:59.392Z,44.52
2022-11-25T16:49:29.397Z,44.59
2022-11-25T16:51:56.791Z,44.58
2022-11-25T16:54:24.049Z,44.48
2022-11-25T16:56:54.867Z,45.15
2022-11-25T16:59:25.770Z,46.11
2022-11-25T17:01:53.492Z,44.49
2022-11-25T17:04:20.957Z,45.54
2022-11-25T17:07:09.804Z,44.86
2022-11-25T17:09:35.880Z,44.38
2022-11-25T17:12:03.268Z,43.99
2022-11-25T17:14:31.351Z,44.22
2022-11-25T17:17:02.157Z,45.58
2022-11-25T17:19:30.637Z,44.56
2022-11-25T17:21:58.005Z,44.76
2022-11-25T17:24:25.561Z,46.33
2022-11-25T17:26:52.738Z,45.55
2022-11-25T17:29:21.242Z,45.11
2022-11-25T17:31:52.376Z,44.67
2022-11-25T17:34:24.065Z,44.93
2022-11-25T17:36:52.274Z,46.03
2022-11-25T17:39:19.468Z,45.79
2022-11-25T17:41:48.051Z,45.56
2022-11-25T17:44:25.361Z,46.75
2022-11-25T17:46:56.822Z,46.72
2022-11-25T17:49:24.453Z,46.43
2022-11-25T17:51:51.705Z,47.90
2022-11-25T17:54:18.928Z,47.27
2022-11-25T17:56:51.813Z,47.93
2022-11-25T17:59:27.018Z,47.49
2022-11-25T18:01:56.095Z,48.29
2022-11-25T18:04:24.331Z,46.61
2022-11-25T18:06:51.571Z,46.10
2022-11-25T18:09:19.057Z,46.26
2022-11-25T18:11:47.711Z,47.36
2022-11-25T18:14:16.671Z,47.10
2022-11-25T18:16:43.933Z,46.99
2022-11-25T18:19:12.564Z,47.31
2022-11-25T18:21:40.964Z,48.09
2022-11-25T18:24:08.473Z,47.08
2022-11-25T18:26:48.532Z,45.66
2022-11-25T18:29:23.827Z,46.50
2022-11-25T18:31:56.496Z,45.83
2022-11-25T18:34:24.444Z,45.43
2022-11-25T18:36:52.369Z,45.21
2022-11-25T18:39:19.900Z,44.49
2022-11-25T18:41:47.480Z,44.70
2022-11-25T18:44:24.492Z,45.01
2022-11-25T18:46:53.388Z,44.58
2022-11-25T18:49:22.289Z,44.49
2022-11-25T18:51:49.720Z,43.96
2022-11-25T18:54:17.027Z,44.16
2022-11-25T18:56:44.790Z,44.18
2022-11-25T18:59:13.750Z,44.35
2022-11-25T19:01:44.203Z,44.32
2022-11-25T19:04:15.693Z,43.93
2022-11-25T19:06:43.460Z,44.22
2022-11-25T19:09:11.043Z,44.88
2022-11-25T19:11:42.567Z,44.79
2022-11-25T19:14:12.372Z,44.45
2022-11-25T19:16:39.972Z,43.93
2022-11-25T19:19:07.431Z,44.11
2022-11-25T19:21:34.863Z,43.96
2022-11-25T19:24:02.376Z,43.78
2022-11-25T19:26:30.149Z,44.08
2022-11-25T19:29:09.707Z,44.21
2022-11-25T19:31:37.282Z,44.46
2022-11-25T19:34:04.575Z,44.12
2022-11-25T19:36:31.923Z,43.91
2022-11-25T19:38:59.627Z,43.86
2022-11-25T19:41:27.386Z,44.07
2022-11-25T19:43:54.594Z,44.08
2022-11-25T19:46:30.058Z,43.85
2022-11-25T19:49:01.859Z,44.59
2022-11-25T19:51:30.244Z,43.87
2022-11-25T19:53:57.656Z,43.79
2022-11-25T19:56:27.043Z,44.54
2022-11-25T19:58:54.672Z,44.26
2022-11-25T20:01:22.514Z,44.98
2022-11-25T20:03:50.090Z,45.24
2022-11-25T20:06:18.224Z,45.06
2022-11-25T20:08:46.133Z,45.32
2022-11-25T20:11:14.662Z,45.29
2022-11-25T20:13:42.269Z,45.32
2022-11-25T20:16:17.576Z,45.52
2022-11-25T20:18:45.390Z,45.66
2022-11-25T20:21:30.460Z,45.32
2022-11-25T20:23:57.946Z,46.21
2022-11-25T20:26:35.487Z,45.60
2022-11-25T20:29:03.663Z,46.41
2022-11-25T20:31:31.135Z,46.28
2022-11-25T20:33:58.460Z,45.72
2022-11-25T20:36:28.295Z,46.15
2022-11-25T20:38:56.147Z,45.84
2022-11-25T20:41:27.781Z,45.62
2022-11-25T20:43:55.869Z,45.87
2022-11-25T20:46:24.235Z,46.61
2022-11-25T20:48:52.049Z,46.00
2022-11-25T20:51:20.453Z,45.97
2022-11-25T20:53:48.687Z,45.87
2022-11-25T20:56:16.938Z,46.00
2022-11-25T20:58:45.506Z,45.30
2022-11-25T21:01:14.476Z,46.00
2022-11-25T21:03:42.626Z,46.81
2022-11-25T21:06:27.683Z,45.98
2022-11-25T21:08:56.234Z,45.70
2022-11-25T21:11:23.788Z,45.80
2022-11-25T21:13:52.050Z,45.82
2022-11-25T21:16:19.545Z,46.51
2022-11-25T21:18:47.070Z,46.37
2022-11-25T21:21:16.503Z,46.37
2022-11-25T21:23:44.180Z,46.35
2022-11-25T21:26:17.240Z,46.53
2022-11-25T21:28:45.366Z,46.10
2022-11-25T21:31:16.855Z,46.16
2022-11-25T21:33:44.756Z,45.85
2022-11-25T21:36:16.228Z,45.99
2022-11-25T21:38:44.121Z,46.03
2022-11-25T21:41:11.538Z,47.77
2022-11-25T21:43:40.371Z,49.66
2022-11-25T21:46:10.074Z,50.96
2022-11-25T21:48:39.503Z,50.76
2022-11-25T21:51:06.813Z,52.31
2022-11-25T21:53:37.260Z,52.11
2022-11-25T21:56:10.894Z,52.75
2022-11-25T21:58:38.372Z,52.63
2022-11-25T22:01:05.786Z,52.42
2022-11-25T22:03:33.383Z,52.00
2022-11-25T22:06:00.651Z,52.72
2022-11-25T22:08:27.852Z,52.72
2022-11-25T22:10:55.518Z,51.88
2022-11-25T22:13:23.847Z,52.24
2022-11-25T22:15:52.342Z,51.48
2022-11-25T22:18:29.506Z,51.45
2022-11-25T22:20:56.779Z,52.07
2022-11-25T22:23:24.357Z,52.14
2022-11-25T22:25:51.689Z,51.83
2022-11-25T22:28:23.152Z,52.72
2022-11-25T22:30:51.310Z,52.72
2022-11-25T22:33:19.078Z,52.17
2022-11-25T22:35:46.498Z,51.09
2022-11-25T22:38:15.033Z,51.63
2022-11-25T22:40:46.568Z,52.64
2022-11-25T22:43:16.375Z,51.47
2022-11-25T22:45:44.260Z,52.45
2022-11-25T22:48:13.252Z,52.07
2022-11-25T22:50:40.729Z,52.53
2022-11-25T22:53:18.076Z,51.87
2022-11-25T22:55:46.058Z,51.93
2022-11-25T22:58:13.741Z,51.56
2022-11-25T23:00:42.699Z,51.73
2022-11-25T23:03:34.223Z,51.14
2022-11-25T23:06:03.285Z,51.78
2022-11-25T23:08:31.815Z,50.66
2022-11-25T23:10:59.136Z,51.57
2022-11-25T23:13:26.353Z,50.76
2022-11-25T23:15:54.830Z,52.34
2022-11-25T23:18:38.356Z,52.77
2022-11-25T23:21:06.796Z,52.37
2022-11-25T23:23:34.020Z,51.73
2022-11-25T23:26:01.336Z,51.81
2022-11-25T23:28:28.822Z,52.15
2022-11-25T23:30:56.936Z,51.29
2022-11-25T23:33:37.926Z,51.21
2022-11-25T23:36:17.098Z,51.44
2022-11-25T23:38:45.089Z,51.57
2022-11-25T23:41:32.631Z,53.04
2022-11-25T23:44:23.000Z,53.10
2022-11-25T23:46:51.080Z,52.34
2022-11-25T23:49:28.841Z,52.60
2022-11-25T23:51:56.884Z,52.20
2022-11-25T23:54:25.920Z,51.97
2022-11-25T23:56:53.156Z,51.84
2022-11-25T23:59:20.628Z,52.05
